createdAt,value
2022-09-11T00:04:37.721Z,99869.06
2022-09-11T00:09:40.457Z,99862.06
2022-09-11T00:14:43.169Z,99850.94
2022-09-11T00:19:45.930Z,99839.63
2022-09-11T00:24:48.753Z,99841.66
2022-09-11T00:29:51.933Z,99837.34
2022-09-11T00:34:54.762Z,99835.09
2022-09-11T00:39:57.761Z,99839.56
2022-09-11T00:45:06.736Z,99852.34
2022-09-11T00:50:19.550Z,99845.31
2022-09-11T00:55:27.563Z,99850.84
2022-09-11T01:00:31.257Z,99853.13
2022-09-11T01:05:39.310Z,99854.34
2022-09-11T01:11:13.518Z,99844.50
2022-09-11T01:16:33.785Z,99849.19
2022-09-11T01:22:24.293Z,99843.41
2022-09-11T01:27:50.840Z,99839.88
2022-09-11T01:33:25.369Z,99836.16
2022-09-11T01:39:00.760Z,99842.13
2022-09-11T01:44:27.998Z,99832.41
2022-09-11T01:49:43.772Z,99835.50
2022-09-11T01:54:59.810Z,99829.56
2022-09-11T02:00:07.850Z,99822.13
2022-09-11T02:05:33.724Z,99828.25
2022-09-11T02:10:44.220Z,99824.78
2022-09-11T02:16:05.656Z,99816.13
2022-09-11T02:21:08.490Z,99824.13
2022-09-11T02:26:14.810Z,99820.25
2022-09-11T02:31:19.955Z,99816.34
2022-09-11T02:36:28.665Z,99818.63
2022-09-11T02:41:51.851Z,99823.78
2022-09-11T02:47:05.622Z,99818.22
2022-09-11T02:52:53.498Z,99820.72
2022-09-11T02:58:18.161Z,99825.81
2022-09-11T03:03:22.816Z,99829.31
2022-09-11T03:08:25.753Z,99830.53
2022-09-11T03:13:31.568Z,99824.56
2022-09-11T03:18:34.802Z,99832.59
2022-09-11T03:23:38.467Z,99835.88
2022-09-11T03:28:41.486Z,99837.94
2022-09-11T03:33:44.212Z,99850.25
2022-09-11T03:38:48.121Z,99844.53
2022-09-11T03:43:52.061Z,99828.69
2022-09-11T03:48:54.871Z,99837.13
2022-09-11T03:54:00.912Z,99845.75
2022-09-11T03:59:03.645Z,99844.31
2022-09-11T04:04:06.513Z,99850.09
2022-09-11T04:09:09.275Z,99860.00
2022-09-11T04:14:12.334Z,99852.97
2022-09-11T04:19:15.276Z,99863.28
2022-09-11T04:24:18.050Z,99863.50
2022-09-11T04:29:22.548Z,99851.31
2022-09-11T04:34:26.251Z,99849.06
2022-09-11T04:39:29.630Z,99842.47
2022-09-11T04:44:32.844Z,99839.38
2022-09-11T04:49:36.029Z,99845.34
2022-09-11T04:54:38.777Z,99841.44
2022-09-11T04:59:41.539Z,99836.31
2022-09-11T05:04:44.901Z,99837.16
2022-09-11T05:09:48.029Z,99827.31
2022-09-11T05:14:51.491Z,99837.41
2022-09-11T05:19:54.331Z,99828.81
2022-09-11T05:24:57.539Z,99835.41
2022-09-11T05:30:01.703Z,99840.97
2022-09-11T05:35:05.496Z,99844.28
2022-09-11T05:40:09.084Z,99848.84
2022-09-11T05:45:13.884Z,99844.75
2022-09-11T05:50:16.749Z,99840.22
2022-09-11T05:55:19.993Z,99855.66
2022-09-11T06:00:22.894Z,99828.66
2022-09-11T06:05:25.607Z,99840.38
2022-09-11T06:10:28.288Z,99839.47
2022-09-11T06:15:46.147Z,99847.88
2022-09-11T06:21:00.612Z,99860.00
2022-09-11T06:26:11.423Z,99864.13
2022-09-11T06:31:18.300Z,99853.63
2022-09-11T06:36:33.009Z,99855.03
2022-09-11T06:41:35.883Z,99853.94
2022-09-11T06:46:45.049Z,99847.22
2022-09-11T06:51:48.032Z,99840.56
2022-09-11T06:56:50.730Z,99847.06
2022-09-11T07:01:53.599Z,99841.91
2022-09-11T07:06:57.243Z,99848.53
2022-09-11T07:12:00.049Z,99836.63
2022-09-11T07:17:03.233Z,99852.78
2022-09-11T07:22:05.977Z,99847.03
2022-09-11T07:27:08.773Z,99833.66
2022-09-11T07:32:11.779Z,99829.94
2022-09-11T07:37:15.146Z,99814.94
2022-09-11T07:42:20.654Z,99810.09
2022-09-11T07:47:23.499Z,99805.50
2022-09-11T07:52:26.966Z,99819.56
2022-09-11T07:57:32.397Z,99810.91
2022-09-11T08:02:35.375Z,99814.66
2022-09-11T08:07:38.412Z,99803.44
2022-09-11T08:12:42.013Z,99810.22
2022-09-11T08:17:44.731Z,99806.00
2022-09-11T08:22:47.584Z,99811.09
2022-09-11T08:27:51.065Z,99811.19
2022-09-11T08:32:53.851Z,99809.16
2022-09-11T08:37:58.375Z,99816.44
2022-09-11T08:43:03.702Z,99826.19
2022-09-11T08:48:09.299Z,99825.81
2022-09-11T08:53:19.101Z,99819.22
2022-09-11T08:58:44.567Z,99833.31
2022-09-11T09:04:24.121Z,99838.78
2022-09-11T09:09:47.431Z,99839.50
2022-09-11T09:15:08.144Z,99843.72
2022-09-11T09:20:21.211Z,99833.06
2022-09-11T09:25:25.935Z,99825.56
2022-09-11T09:30:37.874Z,99830.38
2022-09-11T09:35:45.610Z,99826.44
2022-09-11T09:41:11.404Z,99818.84
2022-09-11T09:46:26.186Z,99807.81
2022-09-11T09:51:29.354Z,99805.72
2022-09-11T09:56:37.722Z,99797.13
2022-09-11T10:01:46.795Z,99797.44
2022-09-11T10:07:11.587Z,99791.66
2022-09-11T10:12:22.583Z,99802.88
2022-09-11T10:17:38.419Z,99801.50
2022-09-11T10:22:41.591Z,99816.56
2022-09-11T10:28:05.896Z,99807.75
2022-09-11T10:33:28.425Z,99802.97
2022-09-11T10:38:36.911Z,99796.59
2022-09-11T10:44:11.211Z,99791.81
2022-09-11T10:49:19.409Z,99787.97
2022-09-11T10:54:54.025Z,99787.56
2022-09-11T11:00:10.027Z,99794.00
2022-09-11T11:05:27.971Z,99799.69
2022-09-11T11:11:14.811Z,99788.72
2022-09-11T11:16:47.118Z,99783.41
2022-09-11T11:22:25.548Z,99774.84
2022-09-11T11:27:50.582Z,99781.41
2022-09-11T11:33:26.084Z,99783.38
2022-09-11T11:39:07.488Z,99780.75
2022-09-11T11:44:21.885Z,99780.72
2022-09-11T11:49:38.854Z,99776.00
2022-09-11T11:54:52.486Z,99776.25
2022-09-11T12:00:10.553Z,99779.84
2022-09-11T12:05:19.373Z,99760.97
2022-09-11T12:10:36.126Z,99764.16
2022-09-11T12:15:39.247Z,99753.72
2022-09-11T12:20:45.325Z,99752.06
2022-09-11T12:25:53.629Z,99735.44
2022-09-11T12:31:11.783Z,99732.19
2022-09-11T12:36:49.257Z,99728.19
2022-09-11T12:41:52.219Z,99729.94
2022-09-11T12:46:54.913Z,99729.19
2022-09-11T12:52:01.598Z,99732.59
2022-09-11T12:57:28.100Z,99731.69
2022-09-11T13:02:44.710Z,99727.56
2022-09-11T13:07:52.204Z,99732.44
2022-09-11T13:12:57.284Z,99725.06
2022-09-11T13:17:59.994Z,99719.91
2022-09-11T13:23:21.159Z,99729.25
2022-09-11T13:28:27.364Z,99711.81
2022-09-11T13:33:32.215Z,99714.06
2022-09-11T13:38:37.274Z,99696.47
2022-09-11T13:43:50.090Z,99705.88
2022-09-11T13:49:10.254Z,99700.38
2022-09-11T13:54:29.887Z,99696.00
2022-09-11T13:59:56.468Z,99693.75
2022-09-11T14:05:22.027Z,99684.38
2022-09-11T14:10:33.460Z,99674.44
2022-09-11T14:15:53.973Z,99688.47
2022-09-11T14:21:00.029Z,99711.72
2022-09-11T14:26:16.086Z,99729.06
2022-09-11T14:31:34.240Z,99740.28
2022-09-11T14:36:49.273Z,99740.22
2022-09-11T14:41:55.204Z,99732.81
2022-09-11T14:46:59.226Z,99724.84
2022-09-11T14:52:02.443Z,99734.00
2022-09-11T14:57:20.579Z,99722.88
2022-09-11T15:02:27.718Z,99728.19
2022-09-11T15:07:30.420Z,99718.94
2022-09-11T15:12:33.226Z,99714.38
2022-09-11T15:17:37.137Z,99722.72
2022-09-11T15:22:40.379Z,99714.19
2022-09-11T15:27:43.161Z,99716.41
2022-09-11T15:32:46.047Z,99717.00
2022-09-11T15:37:49.518Z,99723.56
2022-09-11T15:42:52.333Z,99725.56
2022-09-11T15:47:55.039Z,99715.16
2022-09-11T15:52:58.024Z,99705.03
2022-09-11T15:58:01.086Z,99706.16
2022-09-11T16:03:05.135Z,99702.97
2022-09-11T16:08:07.917Z,99702.00
2022-09-11T16:13:10.693Z,99714.59
2022-09-11T16:18:13.589Z,99711.28
2022-09-11T16:23:16.326Z,99718.09
2022-09-11T16:28:19.641Z,99732.72
2022-09-11T16:33:24.882Z,99733.72
2022-09-11T16:38:29.520Z,99735.75
2022-09-11T16:43:32.436Z,99740.56
2022-09-11T16:48:39.160Z,99740.63
2022-09-11T16:53:42.613Z,99726.91
2022-09-11T16:58:46.551Z,99738.75
2022-09-11T17:03:52.731Z,99739.63
2022-09-11T17:08:56.525Z,99740.13
2022-09-11T17:14:02.767Z,99748.47
2022-09-11T17:19:07.473Z,99755.28
2022-09-11T17:24:12.070Z,99751.44
2022-09-11T17:29:15.025Z,99749.16
2022-09-11T17:34:17.799Z,99758.03
2022-09-11T17:39:20.626Z,99761.53
2022-09-11T17:44:24.665Z,99778.69
2022-09-11T17:49:27.449Z,99780.72
2022-09-11T17:54:30.222Z,99784.38
2022-09-11T17:59:33.051Z,99791.78
2022-09-11T18:04:36.023Z,99798.19
2022-09-11T18:09:38.998Z,99806.03
2022-09-11T18:14:43.386Z,99794.66
2022-09-11T18:19:46.930Z,99796.75
2022-09-11T18:24:53.164Z,99801.97
2022-09-11T18:29:55.905Z,99798.06
2022-09-11T18:35:00.042Z,99803.50
2022-09-11T18:40:03.777Z,99805.03
2022-09-11T18:45:07.665Z,99796.84
2022-09-11T18:50:10.668Z,99802.06
2022-09-11T18:55:13.468Z,99798.59
2022-09-11T19:00:17.843Z,99811.66
2022-09-11T19:05:21.539Z,99809.84
2022-09-11T19:10:24.447Z,99811.69
2022-09-11T19:15:27.231Z,99810.06
2022-09-11T19:20:30.805Z,99815.44
2022-09-11T19:25:35.437Z,99815.25
2022-09-11T19:30:41.293Z,99820.41
2022-09-11T19:35:55.751Z,99824.53
2022-09-11T19:41:00.788Z,99831.56
2022-09-11T19:46:05.358Z,99833.00
2022-09-11T19:51:23.006Z,99841.03
2022-09-11T19:56:27.894Z,99835.47
2022-09-11T20:01:31.590Z,99829.72
2022-09-11T20:06:35.647Z,99813.47
2022-09-11T20:11:38.499Z,99819.84
2022-09-11T20:16:41.846Z,99820.06
2022-09-11T20:21:44.561Z,99814.09
2022-09-11T20:26:47.312Z,99815.75
2022-09-11T20:31:51.244Z,99809.16
2022-09-11T20:36:54.255Z,99815.13
2022-09-11T20:41:57.640Z,99816.56
2022-09-11T20:47:00.753Z,99810.78
2022-09-11T20:52:03.956Z,99825.81
2022-09-11T20:57:07.235Z,99834.44
2022-09-11T21:02:11.627Z,99841.84
2022-09-11T21:07:14.711Z,99843.91
2022-09-11T21:12:17.568Z,99844.91
2022-09-11T21:17:20.584Z,99845.50
2022-09-11T21:22:24.263Z,99842.81
2022-09-11T21:27:27.199Z,99832.09
2022-09-11T21:32:30.203Z,99838.66
2022-09-11T21:37:33.002Z,99833.13
2022-09-11T21:42:35.749Z,99835.38
2022-09-11T21:47:38.514Z,99849.34
2022-09-11T21:52:41.439Z,99852.00
2022-09-11T21:57:44.678Z,99861.22
2022-09-11T22:02:47.495Z,99848.69
2022-09-11T22:07:50.288Z,99848.50
2022-09-11T22:12:53.106Z,99843.78
2022-09-11T22:17:55.994Z,99840.91
2022-09-11T22:23:00.325Z,99834.75
2022-09-11T22:28:04.734Z,99849.63
2022-09-11T22:33:07.468Z,99845.50
2022-09-11T22:38:10.285Z,99854.97
2022-09-11T22:43:13.035Z,99853.34
2022-09-11T22:48:15.785Z,99859.06
2022-09-11T22:53:19.002Z,99851.63
2022-09-11T22:58:23.774Z,99859.03
2022-09-11T23:03:27.276Z,99854.28
2022-09-11T23:08:38.966Z,99854.47
2022-09-11T23:13:44.132Z,99867.03
2022-09-11T23:18:48.237Z,99868.06
2022-09-11T23:23:54.744Z,99867.63
2022-09-11T23:28:58.404Z,99863.91
2022-09-11T23:34:06.283Z,99875.38
2022-09-11T23:39:09.202Z,99874.56
2022-09-11T23:44:12.155Z,99877.00
2022-09-11T23:49:15.412Z,99880.28
2022-09-11T23:54:18.319Z,99874.72
2022-09-11T23:59:21.184Z,99868.53
